• Join FlightAware (Why Join?)
  • Login
  • US Flag 
03:43AM EDT


 

Airport Tracker/Info


-or-


 

Live Flight TrackerFlight Track Log ✈ XOJ552 ✈ 05-May-2013 ✈ KSDF - KOAK

Flight Track Log - Related Links

Times and Time Zones

All times are in EDT time to prevent confusion due to time zone crossing. See the XOJ552 flight status page for this flight to view local times or setup timezone preferences in your user account.

Time Position Orientation Groundspeed Altitude Reporting Facility
EDT Latitude Longitude Course Direction KTS MPH feet Rate Location/Type
12:30PM 38.1167 -85.7833 282° West 223 257 4,500  Level Louisville TRACON
12:30PM 38.1225 -85.7903 317° Northwest 205 236 5,000 2,940 Climbing Indianapolis Center
12:31PM 38.1111 -85.8808 261° West 255 293 8,400 3,240 Climbing Indianapolis Center
12:32PM 38.0994 -85.9889 262° West 303 349 11,700 3,120 Climbing Indianapolis Center
12:33PM 38.0869 -86.1147 263° West 351 404 14,900 2,820 Climbing Indianapolis Center
12:34PM 38.0706 -86.2739 263° West 375 432 17,500 2,520 Climbing Indianapolis Center
12:35PM 38.0285 -87.0206 282° West  Level FlightAware Approximate
12:35PM 38.0544 -86.4133 262° West 392 451 20,100  Level Indianapolis Center
12:36PM 38.0389 -86.5592 262° West 410 472 22,700 1,980 Climbing Indianapolis Center
12:37PM 38.0217 -86.7139 262° West 434 499 24,200 1,620 Climbing Indianapolis Center
12:38PM 38.0108 -86.8836 265° West 477 549 26,100 1,860 Climbing Indianapolis Center
12:39PM 38.0431 -87.0575 283° West 498 573 28,100 1,800 Climbing Indianapolis Center
12:40PM 38.0756 -87.2347 283° West 503 579 29,900 1,620 Climbing Indianapolis Center
12:41PM 38.1100 -87.4144 284° West 513 590 31,500 1,440 Climbing Indianapolis Center
12:42PM 38.1436 -87.5953 283° West 519 597 32,900 1,200 Climbing Indianapolis Center
12:43PM 38.1772 -87.7786 283° West 527 606 34,100 1,380 Climbing Indianapolis Center
12:44PM 38.2100 -87.9594 283° West 523 602 35,800 1,860 Climbing Indianapolis Center
12:45PM 38.2486 -88.1697 283° West 505 581 38,000 1,920 Climbing Indianapolis Center
12:46PM 38.2781 -88.3344 283° West 480 552 39,800 1,320 Climbing Indianapolis Center
12:47PM 38.3064 -88.4953 283° West 465 535 40,700 660 Climbing Kansas City Center
12:48PM 38.3358 -88.6550 283° West 462 532 41,200 480 Climbing Kansas City Center
12:49PM 38.3925 -88.8169 294° West 460 529 41,700 360 Climbing Kansas City Center
12:51PM 38.4614 -88.9569 302° West 465 535 42,000 240 Climbing Kansas City Center
12:52PM 38.5522 -89.0742 315° West 465 535 42,300 240 Climbing Kansas City Center
12:53PM 38.6556 -89.1936 318° Northwest 467 537 42,600 240 Climbing Kansas City Center
12:54PM 38.7481 -89.3072 316° Northwest 464 534 42,900 180 Climbing Kansas City Center
12:55PM 38.8489 -89.4272 317° Northwest 462 532 43,000  Climbing Kansas City Center
12:56PM 38.9353 -89.5492 312° West 465 535 43,000  Level Kansas City Center
12:57PM 38.9783 -89.7192 288° West 472 543 43,000  Level Kansas City Center
12:58PM 38.9922 -89.8878 276° West 477 549 43,000  Level Kansas City Center
12:59PM 39.0058 -90.0550 276° West 477 549 43,000  Level Kansas City Center
01:00PM 39.0200 -90.2233 276° West 479 551 43,000  Level Kansas City Center
01:01PM 39.0331 -90.3925 276° West 482 555 43,000  Level Kansas City Center
01:02PM 39.0489 -90.5944 276° West 481 554 43,000  Level Kansas City Center
01:03PM 39.0619 -90.7614 276° West 477 549 43,000  Level Kansas City Center
01:04PM 39.0739 -90.9306 275° West 477 549 43,000  Level Kansas City Center
01:05PM 39.0867 -91.0978 276° West 476 548 43,000  Level Kansas City Center
01:06PM 39.0981 -91.2642 275° West 471 542 43,000  Level Kansas City Center
01:07PM 39.1100 -91.4300 275° West 469 540 43,000  Level Kansas City Center
01:08PM 39.1233 -91.6292 275° West 467 537 43,000  Level Kansas City Center
01:09PM 39.1322 -91.7808 274° West 467 537 43,000  Level Kansas City Center
01:10PM 39.1453 -91.9814 275° West 468 539 43,000  Level Kansas City Center
01:11PM 39.1611 -92.1456 277° West 465 535 43,000  Level Kansas City Center
01:12PM 39.1764 -92.3097 277° West 463 533 43,000  Level Kansas City Center
01:13PM 39.1928 -92.4756 277° West 464 534 43,000  Level Kansas City Center
01:14PM 39.2072 -92.6419 276° West 465 535 43,000  Level Kansas City Center
01:15PM 39.2222 -92.8069 277° West 467 537 43,000  Level Kansas City Center
01:16PM 39.2372 -92.9744 277° West 470 541 43,000  Level Kansas City Center
01:17PM 39.2547 -93.1708 277° West 467 537 43,000  Level Kansas City Center
01:18PM 39.2681 -93.3369 276° West 462 532 43,000  Level Kansas City Center
01:19PM 39.2839 -93.4981 277° West 467 537 43,000  Level Kansas City Center
01:20PM 39.2967 -93.6611 276° West 461 531 43,000  Level Kansas City Center
01:22PM 39.3125 -93.8383 277° West 461 531 43,000  Level Kansas City Center
01:23PM 39.3269 -94.0231 276° West 464 534 43,000  Level Kansas City Center
01:24PM 39.3394 -94.1817 276° West 464 534 43,000  Level Kansas City Center
01:25PM 39.3539 -94.3658 276° West 463 533 43,000  Level Kansas City Center
01:26PM 39.3661 -94.5233 276° West 461 531 43,000  Level Kansas City Center
01:27PM 39.3794 -94.7047 275° West 455 524 43,000  Level Kansas City Center
01:28PM 39.3903 -94.8639 275° West 460 529 43,000  Level Kansas City Center
01:29PM 39.4042 -95.0428 276° West 454 522 43,000  Level Kansas City Center
01:30PM 39.4153 -95.2094 275° West 453 521 43,000  Level Kansas City Center
01:31PM 39.4269 -95.3706 275° West 451 519 43,000  Level Kansas City Center
01:32PM 39.4381 -95.5275 275° West 453 521 43,000  Level Kansas City Center
01:33PM 39.4494 -95.7075 275° West 452 520 43,000  Level Kansas City Center
01:34PM 39.4581 -95.8619 274° West 453 521 43,000  Level Kansas City Center
01:35PM 39.4697 -96.0406 275° West 447 514 43,000  Level Kansas City Center
01:36PM 39.4806 -96.2053 275° West 445 512 43,000  Level Kansas City Center
01:37PM 39.4906 -96.3653 275° West 446 513 43,000  Level Kansas City Center
01:38PM 39.5006 -96.5247 275° West 447 514 43,000  Level Kansas City Center
01:39PM 39.5081 -96.6778 274° West 446 513 43,000  Level Kansas City Center
01:40PM 39.5186 -96.8558 274° West 446 513 43,000  Level Kansas City Center
01:41PM 39.5278 -97.0025 275° West 444 511 43,000  Level Kansas City Center
01:42PM 39.5358 -97.1617 274° West 444 511 43,000  Level Kansas City Center
01:43PM 39.5447 -97.3456 274° West 445 512 43,000  Level Kansas City Center
01:44PM 39.5531 -97.5064 274° West 446 513 43,000  Level Kansas City Center
01:45PM 39.5603 -97.6664 273° West 445 512 43,000  Level Kansas City Center
01:46PM 39.5681 -97.8267 274° West 444 511 43,000  Level Kansas City Center
01:47PM 39.5775 -97.9906 274° West 445 512 43,000  Level Kansas City Center
01:48PM 39.5858 -98.1814 273° West 444 511 43,000  Level Kansas City Center
01:49PM 39.5886 -98.2758 272° West 445 512 43,000  Level Denver Center
01:50PM 39.5956 -98.4347 273° West 442 509 43,000  Level Denver Center
01:51PM 39.6019 -98.5953 273° West 446 513 43,000  Level Denver Center
01:52PM 39.6081 -98.7572 273° West 449 517 43,000  Level Denver Center
01:53PM 39.6144 -98.9167 273° West 444 511 43,000  Level Denver Center
01:54PM 39.6206 -99.0769 273° West 445 512 43,000  Level Denver Center
01:55PM 39.6272 -99.2689 273° West 443 510 43,000  Level Denver Center
01:56PM 39.6328 -99.4303 273° West 447 514 43,000  Level Denver Center
01:57PM 39.6378 -99.5897 272° West 441 507 43,000  Level Denver Center
01:58PM 39.6431 -99.7542 272° West 451 519 43,000  Level Denver Center
01:59PM 39.6478 -99.9144 272° West 448 516 43,000  Level Denver Center
02:00PM 39.6522 -100.0814 272° West 444 511 43,000  Level Denver Center
02:01PM 39.6581 -100.2594 272° West 442 509 43,000  Level Denver Center
02:02PM 39.6617 -100.4131 272° West 444 511 43,000  Level Denver Center
02:03PM 39.6656 -100.5897 272° West 439 505 43,000  Level Denver Center
02:04PM 39.6686 -100.7167 272° West 440 506 43,000  Level Denver Center
02:06PM 39.6728 -100.9194 272° West 440 506 43,000  Level Denver Center
02:07PM 39.6761 -101.0717 272° West 439 505 43,000  Level Denver Center
02:08PM 39.6783 -101.2247 271° West 441 507 43,000  Level Denver Center
02:09PM 39.6822 -101.4053 272° West 445 512 43,000  Level Denver Center
02:10PM 39.6839 -101.5589 271° West 446 513 43,000  Level Denver Center
02:11PM 39.6869 -101.7392 271° West 446 513 43,000  Level Denver Center
02:12PM 39.6889 -101.8928 271° West 445 512 43,000  Level Denver Center
02:13PM 39.6903 -102.0717 271° West 444 511 43,000  Level Denver Center
02:14PM 39.6919 -102.2250 271° West 443 510 43,000  Level Denver Center
02:15PM 39.6944 -102.4019 271° West 440 506 43,000  Level Denver Center
02:16PM 39.6958 -102.5503 271° West 431 496 43,000  Level Denver Center
02:17PM 39.6956 -102.7233 270° West 430 495 43,000  Level Denver Center
02:18PM 39.6967 -102.8619 271° West 431 496 43,000  Level Denver Center
02:19PM 39.6978 -103.0464 271° West 435 501 43,000  Level Denver Center
02:20PM 39.6964 -103.2036 269° West 433 498 43,000  Level Denver Center
02:21PM 39.6975 -103.3628 271° West 437 503 43,000  Level Denver Center
02:22PM 39.6969 -103.5222 270° West 437 503 43,000  Level Denver Center
02:23PM 39.6964 -103.6808 270° West 437 503 43,000  Level Denver Center
02:24PM 39.6975 -103.8439 271° West 442 509 43,000  Level Denver Center
02:25PM 39.6956 -104.0025 269° West 435 501 43,000  Level Denver Center
02:26PM 39.6944 -104.2150 270° West 435 501 43,000  Level Denver Center
02:27PM 39.6933 -104.3753 270° West 439 505 43,000  Level Denver Center
02:28PM 39.6911 -104.5339 269° West 437 503 43,000  Level Denver Center
02:30PM 39.6836 -104.6875 266° West 432 497 43,000  Level Denver Center
02:31PM 39.6650 -104.8692 262° West 441 507 43,000  Level Denver Center
02:32PM 39.6486 -105.0244 262° West 428 493 43,000  Level Denver Center
02:33PM 39.6314 -105.1836 262° West 440 506 43,000  Level Denver Center
02:34PM 39.6114 -105.3661 262° West 433 498 43,000  Level Denver Center
02:35PM 39.5947 -105.5250 262° West 438 504 43,000  Level Denver Center
02:36PM 39.5736 -105.7075 262° West 438 504 43,000  Level Denver Center
02:37PM 39.5561 -105.8886 263° West 426 490 43,000  Level Denver Center
02:38PM 39.5350 -106.0703 261° West 433 498 43,000  Level Denver Center
02:39PM 39.5167 -106.2372 262° West 432 497 43,000  Level Denver Center
02:40PM 39.4992 -106.3917 262° West 434 499 43,000  Level Denver Center
02:41PM 39.4808 -106.5478 261° West 433 498 43,000  Level Denver Center
02:43PM 39.4606 -106.7189 261° West 429 494 43,000  Level Denver Center
02:44PM 39.4417 -106.8644 261° West 428 493 43,000  Level Denver Center
02:45PM 39.4125 -107.0331 257° West 430 495 43,000  Level Denver Center
02:46PM 39.3861 -107.1744 256° West 426 490 43,000  Level Denver Center
02:47PM 39.3522 -107.3419 255° West 430 495 43,000  Level Denver Center
02:48PM 39.3292 -107.4603 256° West 427 491 43,000  Level Denver Center
02:49PM 39.2917 -107.6522 256° West 430 495 43,000  Level Denver Center
02:50PM 39.2625 -107.7936 255° West 427 491 43,000  Level Denver Center
02:51PM 39.2344 -107.9367 256° West 428 493 43,000  Level Denver Center
02:52PM 39.2014 -108.1031 256° West 427 491 43,000  Level Denver Center
02:53PM 39.1722 -108.2464 255° West 430 495 43,000  Level Denver Center
02:54PM 39.1381 -108.4144 255° West 432 497 43,000  Level Denver Center
02:55PM 39.1081 -108.5592 255° West 435 501 43,000  Level Denver Center
02:56PM 39.0725 -108.7264 255° West 432 497 43,000  Level Denver Center
02:57PM 39.0478 -108.8711 258° West 432 497 43,000  Level Denver Center
02:58PM 39.0189 -109.0653 259° West 430 495 43,000  Level Denver Center
02:59PM 38.9986 -109.2125 260° West 434 499 43,000  Level Denver Center
03:01PM 38.9722 -109.3828 259° West 435 501 43,000  Level Denver Center
03:02PM 38.9467 -109.5525 259° West 432 497 43,000  Level Denver Center
03:03PM 38.9211 -109.7219 259° West 432 497 43,000  Level Denver Center
03:04PM 38.8986 -109.8667 259° West 431 496 43,000  Level Denver Center
03:04PM 38.8911 -109.9156 259° West 432 497 43,000  Level Salt Lake Center
03:05PM 38.8644 -110.0853 259° West 434 499 43,000  Level Salt Lake Center
03:06PM 38.8425 -110.2306 259° West 430 495 43,000  Level Denver Center
03:07PM 38.8150 -110.3986 258° West 435 501 43,000  Level Salt Lake Center
03:08PM 38.7917 -110.5428 258° West 431 496 43,000  Level Salt Lake Center
03:09PM 38.7647 -110.7114 258° West 433 498 43,000  Level Salt Lake Center
03:10PM 38.7400 -110.8542 258° West 431 496 43,000  Level Salt Lake Center
03:12PM 38.6978 -111.0642 256° West  Level FlightAware Approximate
03:12PM 38.6897 -111.1625 256° West 434 499 43,000  Level Salt Lake Center
03:13PM 38.6647 -111.3122 258° West 433 498 43,000  Level Salt Lake Center
03:14PM 38.6394 -111.4622 258° West 434 499 43,000  Level Salt Lake Center
03:15PM 38.6131 -111.6108 257° West 431 496 43,000  Level Salt Lake Center
03:16PM 38.5825 -111.7911 258° West 433 498 43,000  Level Salt Lake Center
03:17PM 38.5561 -111.9403 257° West 434 499 43,000  Level Salt Lake Center
03:18PM 38.5303 -112.0903 258° West 433 498 43,000  Level Salt Lake Center
03:19PM 38.5039 -112.2400 257° West 435 501 43,000  Level Salt Lake Center
03:20PM 38.4781 -112.3875 257° West 430 495 43,000  Level Salt Lake Center
03:21PM 38.4736 -112.5403 268° West 433 498 43,000  Level Salt Lake Center
03:22PM 38.4664 -112.6925 267° West 434 499 43,000  Level Salt Lake Center
03:23PM 38.4581 -112.8756 267° West 434 499 43,000  Level Salt Lake Center
03:25PM 38.4519 -113.0269 267° West 432 497 43,000  Level Salt Lake Center
03:26PM 38.4456 -113.1789 267° West 432 497 43,000  Level Salt Lake Center
03:27PM 38.4389 -113.3311 267° West 432 497 43,000  Level Salt Lake Center
03:28PM 38.4311 -113.4839 266° West 433 498 43,000  Level Salt Lake Center
03:29PM 38.4242 -113.6369 267° West 436 502 43,000  Level Salt Lake Center
03:30PM 38.4150 -113.8181 266° West 431 496 43,000  Level Salt Lake Center
03:31PM 38.4067 -113.9717 266° West 434 499 43,000  Level Salt Lake Center
03:32PM 38.3983 -114.1250 266° West 436 502 43,000  Level Salt Lake Center
03:33PM 38.3903 -114.2783 266° West 436 502 43,000  Level Salt Lake Center
03:34PM 38.3814 -114.4336 266° West 439 505 43,000  Level Salt Lake Center
03:35PM 38.3717 -114.5875 265° West 439 505 43,000  Level Salt Lake Center
03:36PM 38.3617 -114.7733 266° West 441 507 43,000  Level Salt Lake Center
03:37PM 38.3519 -114.9278 265° West 438 504 43,000  Level Salt Lake Center
03:38PM 38.3431 -115.0808 266° West 436 502 43,000  Level Salt Lake Center
03:39PM 38.3331 -115.2361 265° West 440 506 43,000  Level Salt Lake Center
03:40PM 38.3239 -115.3822 265° West 441 507 43,000  Level Salt Lake Center
03:41PM 38.3114 -115.5692 265° West 441 507 43,000  Level Salt Lake Center
03:42PM 38.3017 -115.7250 266° West 441 507 43,000  Level Salt Lake Center
03:43PM 38.2911 -115.8811 265° West 442 509 43,000  Level Salt Lake Center
03:44PM 38.2800 -116.0358 265° West 441 507 43,000  Level Salt Lake Center
03:45PM 38.2700 -116.1917 265° West 442 509 43,000  Level Salt Lake Center
03:46PM 38.2539 -116.4097 265° West 443 510 43,000  Level Oakland Center
03:47PM 38.2428 -116.5653 265° West 443 510 43,000  Level Oakland Center
03:48PM 38.2314 -116.7203 265° West 440 506 43,000  Level Oakland Center
03:49PM 38.2192 -116.8761 264° West 443 510 43,000  Level Oakland Center
03:50PM 38.2089 -117.0008 264° West 444 511 43,000  Level Salt Lake Center
03:52PM 38.1917 -117.2144 264° West 451 519 43,000  Level Oakland Center
03:53PM 38.1797 -117.3703 264° West 448 516 43,000 -300 Level Oakland Center
03:54PM 38.1656 -117.5231 263° West 449 517 42,500 -780 Descending Oakland Center
03:55PM 38.1517 -117.6806 264° West 450 518 41,500 -1,020 Descending Oakland Center
03:56PM 38.1381 -117.8353 264° West 444 511 40,500 -1,020 Descending Oakland Center
03:57PM 38.1239 -117.9881 263° West 438 504 39,500 -1,020 Descending Oakland Center
03:58PM 38.1103 -118.1367 263° West 427 491 38,500 -1,140 Descending Oakland Center
03:59PM 38.0942 -118.3139 263° West 423 487 37,200 -1,200 Descending Oakland Center
04:00PM 38.0869 -118.4689 267° West 438 504 36,100 -780 Descending Oakland Center
04:01PM 38.1064 -118.6253 279° West 450 518 35,700 -840 Descending Oakland Center
04:02PM 38.1222 -118.7806 277° West 445 512 34,400 -1,200 Descending Oakland Center
04:03PM 38.0981 -118.9256 258° West 419 482 33,300 -1,200 Descending Oakland Center
04:04PM 38.0772 -119.0717 260° West 419 482 32,000 -1,320 Descending Oakland Center
04:05PM 38.0519 -119.2444 260° West 438 504 30,700 -1,320 Descending Oakland Center
04:06PM 38.0289 -119.3989 259° West 445 512 29,400 -1,200 Descending Oakland Center
04:07PM 38.0078 -119.5472 260° West 431 496 28,300 -1,200 Descending Oakland Center
04:08PM 37.9867 -119.6931 260° West 421 484 27,000 -1,200 Descending Oakland Center
04:09PM 37.9622 -119.8389 258° West 424 488 25,900 -1,380 Descending Oakland Center
04:10PM 37.9394 -119.9817 259° West 415 478 24,200 -1,680 Descending Oakland Center
04:11PM 37.9172 -120.1236 259° West 411 473 22,500 -1,680 Descending Oakland Center
04:12PM 37.8969 -120.2594 259° West 397 457 20,800 -1,260 Descending Oakland Center
04:13PM 37.8806 -120.3969 261° West 395 455 20,000 -660 Descending Oakland Center
04:14PM 37.8725 -120.5389 266° West 401 461 19,500 -1,080 Descending Oakland Center
04:15PM 37.8642 -120.6789 266° West 401 461 17,800 -2,100 Descending Oakland Center
04:16PM 37.8542 -120.8400 266° West 388 447 15,200 -2,220 Descending Oakland Center
04:17PM 37.8500 -120.9833 268° West 352 405 13,100 -1,800 Descending Northern Cal TRACON
04:18PM 37.8333 -121.1000 260° West 345 397 11,500 -1,620 Descending Northern Cal TRACON
04:19PM 37.8167 -121.2000 258° West 327 376 10,100 -1,620 Descending Northern Cal TRACON
04:20PM 37.7833 -121.3000 247° West 283 326 8,300 -1,020 Descending Northern Cal TRACON
04:21PM 37.7667 -121.4000 258° West 283 326 8,000 -180 Descending Northern Cal TRACON
04:22PM 37.7833 -121.5000 282° West 300 345 8,000  Level Northern Cal TRACON
04:23PM 37.8000 -121.6000 282° West 306 352 8,000 -60 Level Northern Cal TRACON
04:24PM 37.8167 -121.7000 282° West 306 352 7,900 -540 Descending Northern Cal TRACON
04:25PM 37.8500 -121.8000 293° West 295 339 7,000 -720 Descending Northern Cal TRACON
04:26PM 37.8667 -121.9000 282° West 277 319 6,500 -900 Descending Northern Cal TRACON
04:27PM 37.9000 -121.9833 297° West 267 307 5,200 -900 Descending Northern Cal TRACON
04:28PM 37.9167 -122.0667 284° West 274 315 4,900 -540 Descending Northern Cal TRACON
04:28PM 37.9189 -122.0906 277° West 274 315 4,600 -1,440 Descending Oakland Center
04:29PM 37.9394 -122.1839 286° West 275 316 3,100 -840 Descending Oakland Center
04:30PM 37.9394 -122.2747 270° West 267 307 3,000  Descending Oakland Center
04:31PM 37.9278 -122.3589 260° West 246 283 3,100 -120 Climbing Oakland Center
04:33PM 37.8167 -122.3833 190° South 194 223 2,700 -420 Descending Northern Cal TRACON
04:33PM 37.8083 -122.3672 123° Southeast 204 235 2,300 -840 Descending Oakland Center
04:35PM 37.7742 -122.3250 136° Southeast 184 212 1,600 -720 Descending Oakland Center
04:37PM 37.7200 -122.2433 130° Southeast 155 178 100 -780 Descending Oakland Center